Portada
METAR-TAF:

METAR-TAF

Aeropuertos :

Aeropuerto Internacional de Harare

Harare, Zimbabue

latitud: 17-55S, longitud: 031-08E, altitud: 1479 m

Observación

El informe se hizo hace 16 minutos, a las 22:00 UTC
Viento 6 kt del este-noreste
Temperatura 11°C
Humedad 71%
Presión 1025 hPa
Visibilidad 10 km o más
sin nubes por debajo de 1500 m y sin presencia de cumulonimbus.

METAR: FVHA 192200Z 06006KT CAVOK 11/06 Q1025 NOSIG

Hora: 00:16 (22:16 UTC)

Pronóstico

El informe se hizo hace 6 horas y 16 minutos, a las 16:00 UTC
Pronóstico válido del 19 a las 18 UTC al 20 a las 24 UTC
Viento 6 kt del este-noreste
Visibilidad 10 km o más
sin nubes por debajo de 1500 m y sin presencia de cumulonimbus.

TAF: FVHA 191600Z 1918/2024 06006KT CAVOK

Observaciones y pronósticos meteorológicos de más de 4000 aeropuertos (mensajes METAR y TAF).

Los puntos amarillos y rojos representan las estaciones disponibles.

Ponga el ratón en el punto deseado para ver el nombre de la estación.

Haga clic para ver las observaciones y los pronósticos meteorológicos.

Para cambiar el mapa : haga clic en los botones verdes con una cruz de color negro para hacer un zoom, en el botón verde con un guión para alejar o en las flechas verdes para mapas adyacentes.


METAR-TAF: